Time;durP1;ratioP1;P1;durP2;ratioP2;P2;SDS_P1;SDS_P2;PMS_P1;PMS_P2;Temp;Humidity;BMP_temperature;BMP_pressure;BME280_temperature;BME280_humidity;BME280_pressure;Samples;Min_cycle;Max_cycle;Signal;HPM_P1;HPM_P2
2022/07/27 00:00:52;;;;;;;4.07;1.30;;;;;;;15.87;100.00;101844.31;4993880;28;20173;-79
2022/07/27 00:03:18;;;;;;;4.17;1.07;;;;;;;16.01;100.00;101874.91;4996271;28;20189;-80
2022/07/27 00:05:43;;;;;;;4.70;1.50;;;;;;;15.74;100.00;101853.28;4999934;28;20650;-80
2022/07/27 00:08:09;;;;;;;3.53;1.33;;;;;;;15.87;100.00;101889.47;4990956;28;20220;-80
2022/07/27 00:10:35;;;;;;;3.13;0.90;;;;;;;15.97;100.00;101900.72;4997541;28;20193;-80
2022/07/27 00:13:01;;;;;;;7.57;1.13;;;;;;;15.06;100.00;101772.28;4998795;28;20216;-77
2022/07/27 00:15:27;;;;;;;5.03;1.10;;;;;;;14.24;100.00;101657.25;4994407;28;21149;-81
2022/07/27 00:17:52;;;;;;;2.70;0.90;;;;;;;15.04;100.00;101801.41;4993891;28;20511;-80
2022/07/27 00:20:18;;;;;;;3.30;1.00;;;;;;;14.23;100.00;101636.66;4992248;28;20181;-80
2022/07/27 00:22:43;;;;;;;3.13;1.10;;;;;;;14.23;100.00;101669.03;4998866;28;20270;-80
2022/07/27 00:25:09;;;;;;;4.67;1.10;;;;;;;13.96;100.00;101627.66;4995390;28;20654;-81
2022/07/27 00:27:34;;;;;;;3.93;1.03;;;;;;;15.39;100.00;101849.91;5008677;28;20685;-80
2022/07/27 00:30:00;;;;;;;1.77;0.87;;;;;;;15.04;100.00;101806.81;5000684;28;20178;-81
2022/07/27 00:32:25;;;;;;;3.30;0.87;;;;;;;15.43;100.00;101853.03;4989059;28;20349;-81
2022/07/27 00:34:51;;;;;;;2.93;1.00;;;;;;;14.65;100.00;101727.34;4998194;28;20227;-81
2022/07/27 00:37:16;;;;;;;3.13;0.90;;;;;;;15.63;100.00;101877.38;4992605;28;20214;-81
2022/07/27 00:39:42;;;;;;;5.40;1.43;;;;;;;15.73;100.00;101885.94;4998174;28;20795;-80
2022/07/27 00:42:08;;;;;;;2.20;0.80;;;;;;;13.78;100.00;101583.22;4995975;28;20687;-81
2022/07/27 00:44:33;;;;;;;3.67;1.10;;;;;;;14.67;100.00;101725.28;4997529;28;20181;-81
2022/07/27 00:46:59;;;;;;;2.70;1.07;;;;;;;14.54;100.00;101737.91;4997545;28;20436;-81
2022/07/27 00:49:28;;;;;;;3.27;1.00;;;;;;;14.33;100.00;101717.25;4995662;28;20193;-81
2022/07/27 00:51:54;;;;;;;4.20;1.20;;;;;;;15.23;100.00;101855.69;5015511;22;20212;-69
2022/07/27 00:54:23;;;;;;;1.87;0.90;;;;;;;15.50;100.00;101872.78;5009706;28;20467;-69
2022/07/27 00:56:49;;;;;;;4.27;1.00;;;;;;;15.28;100.00;101874.84;5034786;28;20968;-69
2022/07/27 00:59:15;;;;;;;4.60;1.00;;;;;;;15.43;100.00;101913.31;5020671;28;20451;-69
2022/07/27 01:01:41;;;;;;;2.10;0.90;;;;;;;15.56;100.00;101910.66;5018979;28;20185;-70
2022/07/27 01:04:07;;;;;;;5.60;1.33;;;;;;;15.74;100.00;101911.97;5022249;28;20288;-69
2022/07/27 01:06:33;;;;;;;2.70;1.47;;;;;;;15.00;100.00;101843.38;5020905;28;20814;-69
2022/07/27 01:11:47;;;;;;;1.53;1.00;;;;;;;15.26;100.00;101895.81;5017824;28;20528;-69
2022/07/27 01:14:14;;;;;;;1.60;1.10;;;;;;;15.26;100.00;101910.16;5018635;28;20880;-69
2022/07/27 01:16:40;;;;;;;2.30;0.90;;;;;;;15.39;100.00;101912.09;5018685;28;20460;-68
2022/07/27 01:19:08;;;;;;;2.67;1.10;;;;;;;14.85;100.00;101838.13;5018166;28;20856;-69
2022/07/27 01:21:35;;;;;;;3.30;1.10;;;;;;;15.31;100.00;101909.56;5020350;28;20967;-69
2022/07/27 01:24:02;;;;;;;2.93;1.10;;;;;;;15.19;100.00;101914.72;5019348;28;20473;-69
2022/07/27 01:26:28;;;;;;;3.27;0.83;;;;;;;14.45;100.00;101791.22;5021198;28;25181;-69
2022/07/27 01:28:58;;;;;;;2.13;1.10;;;;;;;15.08;100.00;101872.06;5017719;28;25188;-69
2022/07/27 01:31:23;;;;;;;3.57;1.00;;;;;;;15.25;100.00;101886.06;5016658;28;25142;-69
2022/07/27 01:33:49;;;;;;;2.73;0.83;;;;;;;15.34;100.00;101904.56;5021359;28;20472;-69
2022/07/27 01:36:15;;;;;;;4.57;1.10;;;;;;;15.37;100.00;101909.56;5021629;28;20767;-69
2022/07/27 01:38:40;;;;;;;;;;;;;;;15.40;100.00;101904.81;5020213;28;20185;-69
2022/07/27 01:41:05;;;;;;;;;;;;;;;15.50;100.00;101903.34;5022826;28;20075;-69
2022/07/27 01:43:30;;;;;;;;;;;;;;;15.38;100.00;101896.88;5017807;28;20017;-69
2022/07/27 01:45:56;;;;;;;;;;;;;;;15.49;100.00;101898.16;5020753;28;20028;-69
2022/07/27 01:48:21;;;;;;;;;;;;;;;15.41;100.00;101888.34;5017591;28;20515;-69
2022/07/27 01:50:46;;;;;;;;;;;;;;;15.33;100.00;101891.25;5018589;28;20109;-69
2022/07/27 01:53:12;;;;;;;;;;;;;;;15.31;100.00;101888.78;5019036;28;20038;-69
2022/07/27 01:55:37;;;;;;;;;;;;;;;15.08;100.00;101891.81;5019058;28;20011;-69
2022/07/27 01:58:06;;;;;;;;;;;;;;;15.10;100.00;101897.00;5014214;28;20006;-69
2022/07/27 02:00:31;;;;;;;;;;;;;;;14.89;100.00;101893.41;5017073;28;20010;-69
2022/07/27 02:02:56;;;;;;;;;;;;;;;14.94;100.00;101887.41;5015026;28;20299;-69
2022/07/27 02:05:22;;;;;;;;;;;;;;;15.10;100.00;101883.50;5017031;28;20596;-69
2022/07/27 02:07:47;;;;;;;;;;;;;;;14.95;100.00;101886.34;5017029;28;20179;-69
2022/07/27 02:10:13;;;;;;;;;;;;;;;15.01;100.00;101885.53;5016371;28;20256;-68
2022/07/27 02:12:38;;;;;;;;;;;;;;;14.87;100.00;101890.09;5017253;28;20145;-69
2022/07/27 02:15:08;;;;;;;;;;;;;;;15.05;100.00;101891.41;5018471;28;20074;-69
2022/07/27 02:17:33;;;;;;;;;;;;;;;15.04;100.00;101884.31;5013337;28;20149;-69
2022/07/27 02:19:59;;;;;;;;;;;;;;;14.96;100.00;101887.22;5016957;28;20587;-69
2022/07/27 02:22:24;;;;;;;;;;;;;;;14.78;100.00;101893.16;5019160;28;20205;-69
2022/07/27 02:24:49;;;;;;;;;;;;;;;14.76;100.00;101879.03;5017490;28;20152;-69
2022/07/27 02:27:15;;;;;;;;;;;;;;;14.76;100.00;101887.13;5016662;28;20120;-69
2022/07/27 02:29:40;;;;;;;0.80;0.70;;;;;;;14.46;100.00;101861.22;5015478;28;20180;-69
2022/07/27 02:32:06;;;;;;;2.53;1.13;;;;;;;14.54;100.00;101891.78;5017115;28;20219;-69
2022/07/27 02:34:31;;;;;;;1.93;0.90;;;;;;;14.57;100.00;101894.91;5016976;28;20175;-68
2022/07/27 02:36:56;;;;;;;2.53;1.00;;;;;;;14.58;100.00;101896.59;5015429;28;20055;-69
2022/07/27 02:39:22;;;;;;;2.80;1.30;;;;;;;13.87;100.00;101772.63;5018714;28;20209;-69
2022/07/27 02:41:48;;;;;;;4.65;1.35;;;;;;;14.18;100.00;101842.34;5016275;28;20145;-69
2022/07/27 02:44:14;;;;;;;1.10;0.80;;;;;;;14.37;100.00;101893.94;5017701;28;20041;-69
2022/07/27 02:46:40;;;;;;;2.00;0.90;;;;;;;14.35;100.00;101896.00;5018441;28;20222;-69
2022/07/27 02:49:05;;;;;;;2.45;0.80;;;;;;;13.70;100.00;101815.25;5021372;28;20454;-69
2022/07/27 02:51:32;;;;;;;2.60;0.80;;;;;;;13.71;100.00;101799.91;5020428;28;20399;-68
2022/07/27 02:53:57;;;;;;;;;;;;;;;14.32;100.00;101893.69;5013970;28;20176;-70
2022/07/27 02:56:23;;;;;;;;;;;;;;;14.19;100.00;101887.19;5015672;28;20222;-69
2022/07/27 02:58:48;;;;;;;;;;;;;;;14.16;100.00;101892.97;5017557;28;20540;-70
2022/07/27 03:01:13;;;;;;;;;;;;;;;14.19;100.00;101895.28;5014850;28;20158;-69
2022/07/27 03:03:40;;;;;;;;;;;;;;;14.41;100.00;101900.63;5017556;28;20065;-69
2022/07/27 03:06:06;;;;;;;;;;;;;;;14.56;100.00;101898.66;5012469;28;20191;-69
2022/07/27 03:08:31;;;;;;;;;;;;;;;14.48;100.00;101901.47;5014814;28;20649;-69
2022/07/27 03:10:57;;;;;;;2.30;1.10;;;;;;;14.11;100.00;101846.84;5017059;28;20195;-69
2022/07/27 03:13:22;;;;;;;3.70;1.10;;;;;;;14.50;100.00;101901.28;5012519;28;20274;-70
2022/07/27 03:15:47;;;;;;;1.80;1.00;;;;;;;14.22;100.00;101867.06;5015993;28;20205;-69
2022/07/27 03:18:13;;;;;;;3.90;1.20;;;;;;;13.91;100.00;101840.50;5013335;28;20630;-69
2022/07/27 03:20:38;;;;;;;1.55;1.00;;;;;;;13.99;100.00;101837.66;5016035;28;20206;-69
2022/07/27 03:23:03;;;;;;;3.95;1.10;;;;;;;14.35;100.00;101902.25;5015565;28;20294;-69
2022/07/27 03:25:29;;;;;;;2.70;1.27;;;;;;;14.19;100.00;101899.84;5016077;28;20879;-69
2022/07/27 03:27:54;;;;;;;1.67;0.90;;;;;;;13.97;100.00;101869.38;5011485;28;20353;-69
2022/07/27 03:30:20;;;;;;;1.00;0.60;;;;;;;14.02;100.00;101899.28;5015221;28;25065;-69
2022/07/27 03:32:47;;;;;;;3.10;0.73;;;;;;;13.73;100.00;101900.31;5016725;28;20269;-69
2022/07/27 03:35:13;;;;;;;1.23;0.97;;;;;;;13.79;100.00;101903.03;5017456;28;20195;-69
2022/07/27 03:37:38;;;;;;;2.20;1.20;;;;;;;13.76;100.00;101903.44;5022359;28;20422;-69
2022/07/27 03:40:04;;;;;;;2.07;0.80;;;;;;;13.35;100.00;101803.56;5021308;28;20462;-70
2022/07/27 03:42:30;;;;;;;2.67;1.30;;;;;;;13.95;100.00;101910.03;5023380;28;20687;-69
2022/07/27 03:44:55;;;;;;;3.57;1.10;;;;;;;13.81;100.00;101872.38;5024030;28;20455;-69
2022/07/27 03:47:20;;;;;;;2.90;1.00;;;;;;;13.85;100.00;101912.22;5022340;28;19997;-69
2022/07/27 03:49:46;;;;;;;;;;;;;;;13.89;100.00;101908.13;5022316;28;20512;-69
2022/07/27 03:52:12;;;;;;;;;;;;;;;13.82;100.00;101909.09;5022343;28;20171;-69
2022/07/27 03:54:38;;;;;;;;;;;;;;;13.91;100.00;101906.06;5020754;28;20228;-70
2022/07/27 03:57:03;;;;;;;;;;;;;;;13.89;100.00;101910.81;5023753;28;20653;-69
2022/07/27 03:59:28;;;;;;;;;;;;;;;13.90;100.00;101909.78;5020769;28;20175;-69
2022/07/27 04:01:54;;;;;;;1.40;0.70;;;;;;;13.61;100.00;101847.94;5023518;28;20155;-69
2022/07/27 04:04:19;;;;;;;1.50;0.70;;;;;;;13.52;100.00;101837.28;5020202;28;20252;-69
2022/07/27 04:06:45;;;;;;;0.70;0.70;;;;;;;13.63;100.00;101852.13;5024099;28;20044;-69
2022/07/27 04:09:10;;;;;;;2.70;0.70;;;;;;;14.28;100.00;101919.41;5024752;28;20161;-70
2022/07/27 04:11:36;;;;;;;1.37;0.77;;;;;;;14.29;100.00;101904.88;5022356;28;20206;-69
2022/07/27 04:14:02;;;;;;;2.07;0.90;;;;;;;13.87;100.00;101850.03;5020842;28;20215;-69
2022/07/27 04:16:27;;;;;;;2.20;0.80;;;;;;;14.38;100.00;101904.56;5017221;28;20230;-69
2022/07/27 04:18:53;;;;;;;3.60;0.90;;;;;;;14.14;100.00;101886.09;5019585;28;20692;-69
2022/07/27 04:21:18;;;;;;;1.50;0.80;;;;;;;13.78;100.00;101817.81;5022058;28;20265;-70
2022/07/27 04:23:44;;;;;;;4.50;0.90;;;;;;;14.05;100.00;101844.13;5019979;28;20173;-69
2022/07/27 04:26:09;;;;;;;2.40;0.90;;;;;;;14.48;100.00;101896.09;5013369;28;20263;-70
2022/07/27 04:28:34;;;;;;;;;;;;;;;14.56;100.00;101912.16;5013164;28;20208;-70
2022/07/27 04:31:00;;;;;;;3.80;1.10;;;;;;;14.42;100.00;101870.72;5011407;28;20520;-69
2022/07/27 04:33:25;;;;;;;;;;;;;;;14.82;100.00;101913.34;5015876;28;20156;-70
2022/07/27 04:35:50;;;;;;;;;;;;;;;14.94;100.00;101916.28;5018801;28;20189;-70
2022/07/27 04:38:16;;;;;;;2.30;1.00;;;;;;;14.59;100.00;101867.72;5016922;28;20300;-70
2022/07/27 04:40:41;;;;;;;2.20;0.80;;;;;;;14.59;100.00;101865.84;5027175;28;20107;-70
2022/07/27 04:43:06;;;;;;;2.23;0.80;;;;;;;15.05;100.00;101919.25;5019087;28;20370;-70
2022/07/27 04:45:32;;;;;;;;;;;;;;;15.05;100.00;101913.84;5021553;28;20137;-70
2022/07/27 04:47:57;;;;;;;2.77;0.90;;;;;;;15.14;100.00;101914.50;5021089;28;20021;-70
2022/07/27 04:50:23;;;;;;;2.93;1.13;;;;;;;15.15;100.00;101916.97;5024034;28;20185;-70
2022/07/27 04:52:49;;;;;;;3.07;0.90;;;;;;;15.02;100.00;101878.28;5021765;28;20219;-70
2022/07/27 04:55:14;;;;;;;1.90;1.10;;;;;;;13.52;100.00;101672.06;5022180;28;20250;-70
2022/07/27 04:57:42;;;;;;;3.47;0.90;;;;;;;15.24;100.00;101927.63;5018848;28;20286;-70
2022/07/27 05:00:09;;;;;;;2.60;0.80;;;;;;;15.40;100.00;101916.44;5021626;28;20191;-70
2022/07/27 05:02:39;;;;;;;2.47;1.00;;;;;;;15.03;100.00;101856.47;5021907;28;20455;-70
2022/07/27 05:05:06;;;;;;;3.03;1.03;;;;;;;14.87;100.00;101822.56;5023184;28;20521;-69
2022/07/27 05:07:31;;;;;;;4.20;1.50;;;;;;;15.03;100.00;101869.16;5021281;28;20934;-69
2022/07/27 05:09:56;;;;;;;4.93;1.20;;;;;;;15.22;100.00;101900.81;5022297;28;20427;-70
2022/07/27 05:12:22;;;;;;;3.43;0.97;;;;;;;13.74;100.00;101695.22;5020609;28;20205;-70
2022/07/27 05:14:47;;;;;;;3.80;1.30;;;;;;;15.31;100.00;101934.72;5019294;28;20763;-70
2022/07/27 05:17:13;;;;;;;2.17;0.80;;;;;;;15.05;100.00;101924.66;5020705;28;20208;-70
2022/07/27 05:19:38;;;;;;;3.13;1.00;;;;;;;15.21;100.00;101930.72;5022964;28;20191;-70
2022/07/27 05:22:04;;;;;;;3.67;1.10;;;;;;;14.89;100.00;101854.75;5020889;28;20201;-70
2022/07/27 05:24:29;;;;;;;1.93;0.80;;;;;;;15.25;100.00;101921.19;5021008;28;20264;-70
2022/07/27 05:26:54;;;;;;;3.23;1.00;;;;;;;15.54;100.00;101939.78;5020169;28;20194;-70
2022/07/27 05:29:20;;;;;;;2.80;0.90;;;;;;;15.67;100.00;101938.13;5019241;28;20559;-70
2022/07/27 05:31:45;;;;;;;2.30;0.90;;;;;;;15.40;100.00;101873.19;5019521;28;20184;-70
2022/07/27 05:34:11;;;;;;;2.10;0.90;;;;;;;15.88;100.00;101935.28;5021889;28;20227;-70
2022/07/27 05:36:36;;;;;;;2.60;1.13;;;;;;;15.78;100.00;101934.84;5021790;28;20688;-70
2022/07/27 05:39:01;;;;;;;1.90;0.87;;;;;;;15.77;100.00;101898.84;5022330;28;20713;-70
2022/07/27 05:41:27;;;;;;;2.07;0.97;;;;;;;15.45;100.00;101846.38;5020313;28;20192;-70
2022/07/27 05:43:53;;;;;;;1.67;0.90;;;;;;;15.74;100.00;101884.91;5021614;28;20231;-70
2022/07/27 05:46:20;;;;;;;2.10;1.10;;;;;;;15.85;100.00;101870.72;5019149;28;20191;-70
2022/07/27 05:48:45;;;;;;;6.10;1.13;;;;;;;15.95;100.00;101927.16;5021062;28;20508;-70
2022/07/27 05:51:11;;;;;;;1.87;1.10;;;;;;;16.16;100.00;101915.28;5022178;28;20423;-70
2022/07/27 05:53:37;;;;;;;3.70;0.90;;;;;;;16.00;100.00;101895.72;5021336;28;20274;-70
2022/07/27 05:56:03;;;;;;;5.77;1.00;;;;;;;16.21;100.00;101935.25;5020485;28;20598;-70
2022/07/27 05:58:28;;;;;;;3.17;1.13;;;;;;;16.47;100.00;101956.06;5024344;28;20229;-71
2022/07/27 06:00:58;;;;;;;2.10;0.83;;;;;;;16.30;100.00;101938.59;5023010;28;20446;-70
2022/07/27 06:03:23;;;;;;;3.73;1.10;;;;;;;16.49;100.00;101955.84;5017442;28;20617;-70
2022/07/27 06:05:49;;;;;;;4.93;1.30;;;;;;;15.66;100.00;101828.28;5021242;28;20416;-70
2022/07/27 06:08:14;;;;;;;3.63;1.10;;;;;;;16.42;100.00;101952.31;5021442;28;20227;-70
2022/07/27 06:10:40;;;;;;;2.37;0.70;;;;;;;16.60;100.00;101957.88;5032919;28;20668;-70
2022/07/27 06:13:07;;;;;;;3.60;1.17;;;;;;;16.29;100.00;101907.16;5021141;28;20204;-70
2022/07/27 06:15:33;;;;;;;2.53;0.90;;;;;;;16.79;100.00;101955.41;5022132;28;20680;-70
2022/07/27 06:17:59;;;;;;;3.37;1.00;;;;;;;16.70;100.00;101927.69;5019941;28;20490;-70
2022/07/27 06:20:25;;;;;;;3.03;1.13;;;;;;;16.87;100.00;101971.44;5019441;28;20863;-70
2022/07/27 06:22:58;;;;;;;4.47;1.17;;;;;;;16.85;100.00;101966.22;5020575;28;20538;-70
2022/07/27 06:25:26;;;;;;;2.50;0.97;;;;;;;16.75;100.00;101956.81;5021241;28;20408;-70
2022/07/27 06:27:52;;;;;;;2.17;0.90;;;;;;;16.83;100.00;101970.16;5018969;28;20448;-70
2022/07/27 06:30:19;;;;;;;2.00;1.10;;;;;;;16.92;100.00;101961.63;5020897;28;20502;-70
2022/07/27 06:32:45;;;;;;;2.77;1.10;;;;;;;16.89;100.00;101972.03;5019461;28;20984;-70
2022/07/27 06:35:11;;;;;;;1.70;0.80;;;;;;;16.33;100.00;101916.50;5021891;28;20510;-70
2022/07/27 06:37:42;;;;;;;4.07;1.00;;;;;;;16.22;100.00;101898.19;5016751;28;20940;-70
2022/07/27 06:40:12;;;;;;;1.67;0.90;;;;;;;16.90;100.00;101976.41;5021230;28;20435;-69
2022/07/27 06:42:38;;;;;;;2.60;1.50;;;;;;;16.98;100.00;101975.34;5018310;28;20463;-70
2022/07/27 06:45:05;;;;;;;3.83;1.23;;;;;;;16.72;100.00;101923.72;5020222;28;20415;-70
2022/07/27 06:47:30;;;;;;;6.20;1.13;;;;;;;16.98;100.00;101948.22;5019555;28;20892;-71
2022/07/27 06:49:56;;;;;;;2.80;1.00;;;;;;;17.28;100.00;101964.81;5020078;28;20534;-70
2022/07/27 06:52:22;;;;;;;3.20;1.50;;;;;;;16.86;100.00;101926.38;5020145;28;20754;-70
2022/07/27 06:54:47;;;;;;;3.20;1.50;;;;;;;17.07;100.00;101971.38;5029380;22;20514;-68
2022/07/27 06:57:14;;;;;;;3.60;1.20;;;;;;;17.19;100.00;101975.06;5021864;28;20572;-68
2022/07/27 06:59:39;;;;;;;5.93;1.10;;;;;;;16.94;100.00;101978.47;5028080;28;20180;-68
2022/07/27 07:02:05;;;;;;;2.60;1.07;;;;;;;16.25;100.00;101917.53;5026204;28;20925;-68
2022/07/27 07:04:32;;;;;;;2.93;1.07;;;;;;;16.28;100.00;102002.91;5020472;28;20270;-69
2022/07/27 07:06:59;;;;;;;2.67;1.03;;;;;;;16.21;100.00;102021.06;5001524;28;20189;-68
2022/07/27 07:09:28;;;;;;;1.97;0.90;;;;;;;16.22;100.00;102012.72;4998979;28;20455;-68
2022/07/27 07:11:54;;;;;;;2.57;1.20;;;;;;;16.25;100.00;101976.28;5001586;28;20441;-68
2022/07/27 07:14:20;;;;;;;4.53;1.10;;;;;;;16.50;100.00;102017.91;4999813;28;20439;-68
2022/07/27 07:16:45;;;;;;;3.23;1.30;;;;;;;16.59;100.00;102009.59;5001020;28;20470;-68
2022/07/27 07:19:11;;;;;;;5.10;1.20;;;;;;;16.63;100.00;102019.78;5001648;28;20181;-68
2022/07/27 07:21:36;;;;;;;2.70;0.93;;;;;;;16.45;100.00;102015.00;5001331;28;20388;-68
2022/07/27 07:24:02;;;;;;;2.67;1.10;;;;;;;16.20;100.00;101935.44;5003181;28;20195;-68
2022/07/27 07:26:27;;;;;;;1.83;0.97;;;;;;;16.66;100.00;102018.53;5000061;28;20189;-68
2022/07/27 07:28:53;;;;;;;2.80;1.00;;;;;;;16.31;100.00;101951.06;4993763;28;20281;-68
2022/07/27 07:31:19;;;;;;;2.63;1.17;;;;;;;16.41;100.00;101983.97;5001740;28;20669;-68
2022/07/27 07:33:45;;;;;;;4.70;1.47;;;;;;;15.89;100.00;101957.75;4997871;28;20181;-68
2022/07/27 07:36:10;;;;;;;5.53;1.20;;;;;;;16.37;100.00;102019.78;5000761;28;21011;-67
2022/07/27 07:38:36;;;;;;;2.97;1.10;;;;;;;16.32;100.00;101970.88;5000912;28;20477;-68
2022/07/27 07:41:02;;;;;;;2.97;1.40;;;;;;;16.58;100.00;102025.00;5000141;28;20631;-68
2022/07/27 07:43:27;;;;;;;4.07;1.30;;;;;;;16.44;100.00;101990.84;4999178;28;20216;-68
2022/07/27 07:45:54;;;;;;;2.77;1.17;;;;;;;16.72;100.00;102001.41;5006566;28;20213;-68
2022/07/27 07:48:20;;;;;;;1.90;0.80;;;;;;;16.37;100.00;101982.72;5001738;28;20185;-68
2022/07/27 07:50:46;;;;;;;2.03;1.27;;;;;;;16.76;100.00;102015.41;5000951;28;20439;-68
2022/07/27 07:53:14;;;;;;;4.50;1.03;;;;;;;16.63;100.00;102008.94;4999793;28;20451;-68
2022/07/27 07:55:39;;;;;;;6.50;1.70;;;;;;;16.93;100.00;102013.94;5001371;28;20316;-68
2022/07/27 07:58:04;;;;;;;1.37;0.90;;;;;;;16.98;100.00;102016.00;4999991;28;20525;-68
2022/07/27 08:00:30;;;;;;;2.43;1.20;;;;;;;17.25;100.00;102004.03;5000294;28;20196;-68
2022/07/27 08:02:58;;;;;;;1.60;0.90;;;;;;;17.21;100.00;101986.50;4999975;28;20200;-68
2022/07/27 08:05:25;;;;;;;3.70;1.00;;;;;;;17.19;100.00;102018.44;4997210;28;20216;-68
2022/07/27 08:07:52;;;;;;;3.53;1.00;;;;;;;17.28;100.00;102010.91;4998905;28;21016;-68
2022/07/27 08:10:19;;;;;;;3.30;1.00;;;;;;;17.10;100.00;102014.31;5000819;28;20424;-68
2022/07/27 08:12:48;;;;;;;2.83;1.07;;;;;;;17.33;100.00;102011.91;5000133;28;20428;-68
2022/07/27 08:15:16;;;;;;;2.20;0.90;;;;;;;17.20;100.00;102013.84;4999427;28;20555;-68
2022/07/27 08:17:42;;;;;;;4.90;1.27;;;;;;;17.46;100.00;102021.03;5001272;28;20511;-67
2022/07/27 08:20:09;;;;;;;4.23;1.23;;;;;;;17.57;100.00;102028.50;5000012;28;20451;-68
2022/07/27 08:22:35;;;;;;;4.53;0.97;;;;;;;17.20;100.00;101990.28;5004487;28;20420;-68
2022/07/27 08:25:02;;;;;;;3.03;1.27;;;;;;;17.53;100.00;102022.69;5001783;28;20469;-68
2022/07/27 08:27:28;;;;;;;3.30;1.00;;;;;;;17.52;100.00;102007.44;5003553;28;20257;-68
2022/07/27 08:29:53;;;;;;;2.90;1.33;;;;;;;17.51;100.00;102018.50;5005226;28;20985;-68
2022/07/27 08:32:19;;;;;;;2.40;0.97;;;;;;;16.98;100.00;101967.19;5005662;28;20185;-68
2022/07/27 08:34:44;;;;;;;2.60;1.00;;;;;;;17.35;100.00;102020.66;4999672;28;20212;-67
2022/07/27 08:37:09;;;;;;;1.87;1.00;;;;;;;17.51;100.00;102021.22;5002619;28;20641;-67
2022/07/27 08:39:35;;;;;;;2.03;1.00;;;;;;;17.70;100.00;102020.28;5004126;28;20196;-68
2022/07/27 08:42:03;;;;;;;1.90;0.97;;;;;;;17.75;100.00;102023.16;5002593;28;20613;-67
2022/07/27 08:44:29;;;;;;;4.20;0.80;;;;;;;17.94;100.00;102016.00;5000384;28;20248;-68
2022/07/27 08:46:55;;;;;;;2.03;0.73;;;;;;;17.94;100.00;101985.31;5003613;28;20427;-67
2022/07/27 08:49:22;;;;;;;5.23;1.33;;;;;;;17.86;100.00;102024.41;5004717;28;20263;-67
2022/07/27 08:51:49;;;;;;;3.00;1.00;;;;;;;17.46;100.00;101994.75;5004617;28;20435;-67
2022/07/27 08:54:15;;;;;;;2.13;0.90;;;;;;;17.51;100.00;102005.78;5000978;28;20976;-67
2022/07/27 08:56:40;;;;;;;4.23;1.03;;;;;;;17.67;100.00;101998.19;5002239;28;20479;-68
2022/07/27 08:59:06;;;;;;;2.50;0.90;;;;;;;17.52;100.00;101941.50;5003658;28;20519;-68
2022/07/27 09:01:34;;;;;;;1.70;0.70;;;;;;;17.71;100.00;101994.81;5002728;28;20241;-68
2022/07/27 09:03:59;;;;;;;4.40;1.20;;;;;;;17.55;100.00;101984.47;5005037;28;20251;-68
2022/07/27 09:06:46;;;;;;;1.83;1.03;;;;;;;17.76;100.00;102021.28;5004628;28;21280;-68
2022/07/27 09:09:14;;;;;;;2.07;0.87;;;;;;;17.66;100.00;102018.22;5019072;28;20246;-68
2022/07/27 09:11:39;;;;;;;2.87;1.03;;;;;;;17.75;100.00;102030.47;5004331;28;20456;-67
2022/07/27 09:14:07;;;;;;;1.97;0.63;;;;;;;17.96;100.00;102026.63;5000500;28;20916;-68
2022/07/27 09:16:34;;;;;;;1.80;0.80;;;;;;;17.70;100.00;101989.59;5001003;28;20209;-68
2022/07/27 09:19:03;;;;;;;1.00;0.80;;;;;;;18.01;100.00;102024.09;5000093;28;20447;-68
2022/07/27 09:21:28;;;;;;;2.10;0.73;;;;;;;17.96;100.00;102016.59;5005458;28;20421;-68
2022/07/27 09:24:08;;;;;;;2.10;0.80;;;;;;;18.06;100.00;102000.66;5002354;28;20417;-68
2022/07/27 09:26:34;;;;;;;1.83;0.80;;;;;;;18.30;100.00;102026.16;5003581;28;20646;-68
2022/07/27 09:29:06;;;;;;;2.90;0.80;;;;;;;18.65;100.00;102024.81;5002895;28;20523;-68
2022/07/27 09:31:42;;;;;;;1.80;0.90;;;;;;;18.60;100.00;102027.38;5002360;28;20555;-68
2022/07/27 09:34:08;;;;;;;3.53;0.90;;;;;;;18.32;100.00;102034.09;4999641;28;20439;-68
2022/07/27 09:36:48;;;;;;;1.70;0.67;;;;;;;18.50;100.00;102047.72;5003378;28;20479;-68
2022/07/27 09:39:18;;;;;;;2.23;0.90;;;;;;;18.14;100.00;101980.56;5004149;28;20795;-68
2022/07/27 09:41:47;;;;;;;1.63;0.83;;;;;;;18.42;100.00;101969.22;5003585;28;20448;-69
2022/07/27 09:44:13;;;;;;;2.40;0.70;;;;;;;18.81;100.00;102034.31;5002638;28;21110;-68
2022/07/27 09:46:41;;;;;;;2.63;0.73;;;;;;;18.74;100.00;102012.63;5003480;28;20455;-68
2022/07/27 09:49:25;;;;;;;2.43;0.90;;;;;;;19.09;100.00;102037.38;5001114;28;20466;-68
2022/07/27 09:51:51;;;;;;;4.13;0.60;;;;;;;18.98;100.00;102035.41;5002132;28;20422;-68
2022/07/27 09:54:17;;;;;;;1.37;0.67;;;;;;;18.83;100.00;102043.06;5001639;28;20452;-68
2022/07/27 09:56:43;;;;;;;1.07;0.70;;;;;;;18.94;100.00;102050.47;5003389;28;20295;-68
2022/07/27 09:59:16;;;;;;;4.10;0.80;;;;;;;18.91;100.00;102042.78;5000863;28;20213;-69
2022/07/27 10:01:42;;;;;;;1.50;0.70;;;;;;;19.14;100.00;102034.78;5001900;28;20449;-69
2022/07/27 10:04:08;;;;;;;1.57;0.80;;;;;;;18.95;100.00;101987.75;5017700;28;20463;-69
2022/07/27 10:06:34;;;;;;;3.83;1.03;;;;;;;18.97;100.00;102028.28;5000342;28;20212;-68
2022/07/27 10:09:00;;;;;;;2.27;0.90;;;;;;;19.12;100.00;102041.50;5001230;28;20247;-68
2022/07/27 10:11:26;;;;;;;2.30;0.70;;;;;;;18.65;100.00;101992.19;5002723;28;20440;-68
2022/07/27 10:13:54;;;;;;;2.00;0.80;;;;;;;19.00;100.00;102044.13;5002764;28;20484;-69
2022/07/27 10:16:22;;;;;;;1.03;0.60;;;;;;;18.75;100.00;102038.78;5000838;28;20472;-68
2022/07/27 10:18:48;;;;;;;3.47;0.80;;;;;;;19.06;100.00;102045.13;5002455;28;20429;-68
2022/07/27 10:21:14;;;;;;;2.20;1.00;;;;;;;18.92;100.00;102049.91;5003239;28;20431;-68
2022/07/27 10:23:41;;;;;;;0.90;0.60;;;;;;;19.09;100.00;102047.38;4999912;28;20192;-68
2022/07/27 10:26:20;;;;;;;2.00;0.80;;;;;;;19.17;100.00;102047.91;5001646;28;20796;-68
2022/07/27 10:28:56;;;;;;;2.37;0.80;;;;;;;19.11;100.00;102042.56;5004075;28;20522;-69
2022/07/27 10:31:48;;;;;;;1.43;0.77;;;;;;;19.04;100.00;101992.88;4997663;28;20447;-68
2022/07/27 10:34:35;;;;;;;1.47;0.80;;;;;;;19.38;100.00;102046.66;5003568;28;20472;-67
2022/07/27 10:37:12;;;;;;;4.13;1.03;;;;;;;19.62;100.00;102049.47;5002408;28;20529;-68
2022/07/27 10:39:39;;;;;;;5.77;0.97;;;;;;;19.27;100.00;102062.91;5000104;28;20440;-68
2022/07/27 10:42:26;;;;;;;2.80;0.97;;;;;;;19.13;100.00;102054.88;5002697;28;20763;-68
2022/07/27 10:45:05;;;;;;;1.43;0.70;;;;;;;19.50;100.00;102043.97;5000527;28;20936;-68
2022/07/27 10:47:40;;;;;;;2.00;0.80;;;;;;;19.15;100.00;102028.28;4999671;28;20428;-68
2022/07/27 10:50:14;;;;;;;3.70;0.80;;;;;;;19.56;100.00;102047.69;5000635;28;20425;-67
2022/07/27 10:52:58;;;;;;;2.77;0.90;;;;;;;19.78;100.00;102040.69;5002652;28;20412;-68
2022/07/27 10:55:30;;;;;;;2.23;0.73;;;;;;;19.50;100.00;102049.44;4998716;28;20842;-68
2022/07/27 10:58:13;;;;;;;3.00;0.90;;;;;;;19.51;100.00;102047.53;5002120;28;20420;-68
2022/07/27 11:00:48;;;;;;;2.27;0.83;;;;;;;19.64;100.00;102045.47;5001008;28;20433;-68
2022/07/27 11:03:22;;;;;;;2.63;1.13;;;;;;;20.03;100.00;102050.59;5002714;28;20423;-68
2022/07/27 11:06:10;;;;;;;1.73;0.93;;;;;;;19.39;100.00;101988.44;5002357;28;20854;-67
2022/07/27 11:08:43;;;;;;;1.97;1.00;;;;;;;19.25;100.00;102054.94;5000004;28;20654;-69
2022/07/27 11:11:14;;;;;;;1.20;0.70;;;;;;;19.26;100.00;102055.78;5000247;28;20437;-68
2022/07/27 11:13:40;;;;;;;3.27;0.90;;;;;;;19.63;100.00;102045.69;5000812;28;20443;-68
2022/07/27 11:16:10;;;;;;;2.13;0.93;;;;;;;19.79;100.00;102039.63;5000546;28;20468;-68
2022/07/27 11:18:38;;;;;;;1.20;0.90;;;;;;;20.11;100.00;102041.28;5002082;28;20185;-67
2022/07/27 11:21:13;;;;;;;2.33;0.80;;;;;;;20.06;100.00;102039.25;5003439;28;20925;-68
2022/07/27 11:23:39;;;;;;;3.07;1.13;;;;;;;19.41;100.00;102059.78;5000979;28;20423;-67
2022/07/27 11:26:05;;;;;;;2.17;0.90;;;;;;;19.01;100.00;102028.69;4998923;28;20467;-68
2022/07/27 11:28:32;;;;;;;4.20;1.17;;;;;;;18.64;100.00;102064.75;5001296;28;20460;-68